createdAt,value
2022-12-06T00:01:36.213Z,9.45
2022-12-06T00:04:05.413Z,8.95
2022-12-06T00:06:33.232Z,8.89
2022-12-06T00:09:00.846Z,8.69
2022-12-06T00:11:29.491Z,9.13
2022-12-06T00:13:57.621Z,9.09
2022-12-06T00:16:25.251Z,9.17
2022-12-06T00:18:52.802Z,9.73
2022-12-06T00:21:24.620Z,9.55
2022-12-06T00:23:53.076Z,9.37
2022-12-06T00:26:20.802Z,9.03
2022-12-06T00:28:48.167Z,8.73
2022-12-06T00:31:16.223Z,8.89
2022-12-06T00:33:43.779Z,9.22
2022-12-06T00:36:12.169Z,8.92
2022-12-06T00:38:39.457Z,8.97
2022-12-06T00:41:08.083Z,8.97
2022-12-06T00:43:35.574Z,8.73
2022-12-06T00:46:03.158Z,8.48
2022-12-06T00:48:30.936Z,8.44
2022-12-06T00:50:58.165Z,8.82
2022-12-06T00:53:25.590Z,8.47
2022-12-06T00:55:53.154Z,8.45
2022-12-06T00:58:20.404Z,8.41
2022-12-06T01:00:47.769Z,8.29
2022-12-06T01:03:15.504Z,8.99
2022-12-06T01:05:50.103Z,7.72
2022-12-06T01:08:18.575Z,7.62
2022-12-06T01:10:53.078Z,7.83
2022-12-06T01:13:20.581Z,8.33
2022-12-06T01:15:47.917Z,8.14
2022-12-06T01:18:15.190Z,8.42
2022-12-06T01:20:42.708Z,8.31
2022-12-06T01:23:10.298Z,8.05
2022-12-06T01:25:38.594Z,7.79
2022-12-06T01:28:06.240Z,7.97
2022-12-06T01:30:33.496Z,7.98
2022-12-06T01:33:00.841Z,7.61
2022-12-06T01:35:28.358Z,7.89
2022-12-06T01:37:55.879Z,7.87
2022-12-06T01:40:23.090Z,8.15
2022-12-06T01:42:50.608Z,8.04
2022-12-06T01:45:17.876Z,7.49
2022-12-06T01:47:45.874Z,7.91
2022-12-06T01:50:20.505Z,7.26
2022-12-06T01:52:52.383Z,7.79
2022-12-06T01:55:20.519Z,7.36
2022-12-06T01:57:48.361Z,7.49
2022-12-06T02:00:15.986Z,7.14
2022-12-06T02:02:43.645Z,8.25
2022-12-06T02:05:11.031Z,7.55
2022-12-06T02:07:38.224Z,7.87
2022-12-06T02:10:06.076Z,8.80
2022-12-06T02:12:33.273Z,8.52
2022-12-06T02:15:00.515Z,8.62
2022-12-06T02:17:27.998Z,8.23
2022-12-06T02:19:58.570Z,8.91
2022-12-06T02:22:28.864Z,9.36
2022-12-06T02:24:59.870Z,9.95
2022-12-06T02:27:46.019Z,10.45
2022-12-06T02:30:18.760Z,10.70
2022-12-06T02:33:06.470Z,10.68
2022-12-06T02:35:40.659Z,10.13
2022-12-06T02:38:13.058Z,9.56
2022-12-06T02:40:46.170Z,10.43
2022-12-06T02:43:14.695Z,10.33
2022-12-06T02:45:44.079Z,10.20
2022-12-06T02:48:11.318Z,10.03
2022-12-06T02:50:39.922Z,9.75
2022-12-06T02:53:07.945Z,9.10
2022-12-06T02:55:35.154Z,9.66
2022-12-06T02:58:02.408Z,10.00
2022-12-06T03:00:30.009Z,10.14
2022-12-06T03:03:04.372Z,9.79
2022-12-06T03:05:58.219Z,9.70
2022-12-06T03:08:28.183Z,9.65
2022-12-06T03:10:56.645Z,9.34
2022-12-06T03:13:26.377Z,8.67
2022-12-06T03:15:53.604Z,8.82
2022-12-06T03:18:47.310Z,8.46
2022-12-06T03:21:16.058Z,8.21
2022-12-06T03:23:44.852Z,9.05
2022-12-06T03:26:13.594Z,8.82
2022-12-06T03:28:40.836Z,8.50
2022-12-06T03:31:13.252Z,8.72
2022-12-06T03:33:42.937Z,8.76
2022-12-06T03:36:10.964Z,7.83
2022-12-06T03:38:41.045Z,8.23
2022-12-06T03:41:08.226Z,8.07
2022-12-06T03:43:35.704Z,8.17
2022-12-06T03:46:16.460Z,7.25
2022-12-06T03:48:44.971Z,7.68
2022-12-06T03:51:14.052Z,7.54
2022-12-06T03:53:45.154Z,7.69
2022-12-06T03:56:12.612Z,7.83
2022-12-06T03:58:39.858Z,7.74
2022-12-06T04:01:09.508Z,7.65
2022-12-06T04:03:37.156Z,7.67
2022-12-06T04:06:05.069Z,7.90
2022-12-06T04:08:32.303Z,8.38
2022-12-06T04:10:59.972Z,8.79
2022-12-06T04:13:27.638Z,9.18
2022-12-06T04:15:55.283Z,9.39
2022-12-06T04:18:22.907Z,9.65
2022-12-06T04:21:15.061Z,9.70
2022-12-06T04:23:43.616Z,9.95
2022-12-06T04:26:12.150Z,10.16
2022-12-06T04:28:57.848Z,10.02
2022-12-06T04:31:43.894Z,10.36
2022-12-06T04:34:29.610Z,10.48
2022-12-06T04:37:15.574Z,10.28
2022-12-06T04:39:42.798Z,10.63
2022-12-06T04:42:28.673Z,10.69
2022-12-06T04:44:55.848Z,10.38
2022-12-06T04:47:23.358Z,10.87
2022-12-06T04:49:50.559Z,11.06
2022-12-06T04:52:17.900Z,11.02
2022-12-06T04:54:45.477Z,11.14
2022-12-06T04:57:13.186Z,11.19
2022-12-06T04:59:41.313Z,11.19
2022-12-06T05:02:10.553Z,11.25
2022-12-06T05:04:37.811Z,11.24
2022-12-06T05:07:05.032Z,10.76
2022-12-06T05:09:32.515Z,11.15
2022-12-06T05:11:59.751Z,11.39
2022-12-06T05:14:27.056Z,11.46
2022-12-06T05:16:54.558Z,11.19
2022-12-06T05:19:21.878Z,11.36
2022-12-06T05:21:49.120Z,11.36
2022-12-06T05:24:16.595Z,11.45
2022-12-06T05:26:43.803Z,11.45
2022-12-06T05:29:11.027Z,11.51
2022-12-06T05:31:38.617Z,11.16
2022-12-06T05:34:05.874Z,10.70
2022-12-06T05:36:33.095Z,11.24
2022-12-06T05:39:00.614Z,11.23
2022-12-06T05:41:27.816Z,11.18
2022-12-06T05:43:54.965Z,11.32
2022-12-06T05:46:22.555Z,11.29
2022-12-06T05:48:49.862Z,11.23
2022-12-06T05:51:17.100Z,11.35
2022-12-06T05:53:44.595Z,11.31
2022-12-06T05:56:12.309Z,11.39
2022-12-06T05:58:39.795Z,11.50
2022-12-06T06:01:07.693Z,11.43
2022-12-06T06:03:35.269Z,11.52
2022-12-06T06:06:02.596Z,11.54
2022-12-06T06:08:29.943Z,11.54
2022-12-06T06:10:57.877Z,11.50
2022-12-06T06:13:25.072Z,11.47
2022-12-06T06:15:52.258Z,11.47
2022-12-06T06:18:20.258Z,11.41
2022-12-06T06:20:54.212Z,11.37
2022-12-06T06:23:21.829Z,11.30
2022-12-06T06:25:49.059Z,11.35
2022-12-06T06:28:16.634Z,11.44
2022-12-06T06:30:44.755Z,11.35
2022-12-06T06:33:12.015Z,11.27
2022-12-06T06:35:39.396Z,11.09
2022-12-06T06:38:07.175Z,11.26
2022-12-06T06:40:34.801Z,11.36
2022-12-06T06:43:20.595Z,11.39
2022-12-06T06:45:55.026Z,11.41
2022-12-06T06:48:22.470Z,11.22
2022-12-06T06:50:55.415Z,11.27
2022-12-06T06:53:25.202Z,11.39
2022-12-06T06:55:54.034Z,11.32
2022-12-06T06:58:21.259Z,11.29
2022-12-06T07:00:58.561Z,11.15
2022-12-06T07:03:26.361Z,11.27
2022-12-06T07:05:54.299Z,11.16
2022-12-06T07:08:21.614Z,11.30
2022-12-06T07:10:49.167Z,11.25
2022-12-06T07:13:16.795Z,11.37
2022-12-06T07:15:44.031Z,11.39
2022-12-06T07:18:11.522Z,11.27
2022-12-06T07:20:38.763Z,11.41
2022-12-06T07:23:06.000Z,11.41
2022-12-06T07:25:33.524Z,11.45
2022-12-06T07:28:00.861Z,11.49
2022-12-06T07:30:28.105Z,11.39
2022-12-06T07:32:55.586Z,11.36
2022-12-06T07:35:23.216Z,11.45
2022-12-06T07:37:50.706Z,11.25
2022-12-06T07:40:21.017Z,11.52
2022-12-06T07:43:16.650Z,11.36
2022-12-06T07:45:44.247Z,11.34
2022-12-06T07:48:11.565Z,11.30
2022-12-06T07:50:38.776Z,11.28
2022-12-06T07:53:06.267Z,10.97
2022-12-06T07:55:33.482Z,10.63
2022-12-06T07:58:00.664Z,10.65
2022-12-06T08:00:28.175Z,10.60
2022-12-06T08:02:55.638Z,10.66
2022-12-06T08:05:22.887Z,10.71
2022-12-06T08:07:50.219Z,10.64
2022-12-06T08:10:17.771Z,10.45
2022-12-06T08:12:45.038Z,10.18
2022-12-06T08:15:15.173Z,10.06
2022-12-06T08:17:42.665Z,10.18
2022-12-06T08:20:10.230Z,10.15
2022-12-06T08:22:37.440Z,10.12
2022-12-06T08:25:05.026Z,9.93
2022-12-06T08:27:32.531Z,9.94
2022-12-06T08:30:00.005Z,10.46
2022-12-06T08:32:27.757Z,10.79
2022-12-06T08:34:54.968Z,11.59
2022-12-06T08:37:22.171Z,11.56
2022-12-06T08:39:49.707Z,12.76
2022-12-06T08:42:19.520Z,12.73
2022-12-06T08:44:54.188Z,12.06
2022-12-06T08:47:21.395Z,11.64
2022-12-06T08:49:49.516Z,11.99
2022-12-06T08:52:17.219Z,11.01
2022-12-06T08:54:44.443Z,11.30
2022-12-06T08:57:11.644Z,11.57
2022-12-06T08:59:39.155Z,11.62
2022-12-06T09:02:06.419Z,12.07
2022-12-06T09:04:33.773Z,12.38
2022-12-06T09:07:01.351Z,12.34
2022-12-06T09:09:28.532Z,12.35
2022-12-06T09:11:55.775Z,12.52
2022-12-06T09:15:06.740Z,12.44
2022-12-06T09:17:34.337Z,13.10
2022-12-06T09:20:05.919Z,14.13
2022-12-06T09:22:33.950Z,14.62
2022-12-06T09:25:01.248Z,14.60
2022-12-06T09:27:28.982Z,13.93
2022-12-06T09:29:56.464Z,14.41
2022-12-06T09:32:23.669Z,14.45
2022-12-06T09:34:51.626Z,13.95
2022-12-06T09:37:19.163Z,13.66
2022-12-06T09:39:47.422Z,12.72
2022-12-06T09:42:14.627Z,11.69
2022-12-06T09:45:00.994Z,11.72
2022-12-06T09:47:48.791Z,12.21
2022-12-06T09:50:31.469Z,11.31
2022-12-06T09:53:01.707Z,10.99
2022-12-06T09:55:47.886Z,10.43
2022-12-06T09:58:33.887Z,9.87
2022-12-06T10:01:13.318Z,10.06
2022-12-06T10:03:43.557Z,10.86
2022-12-06T10:06:14.905Z,11.14
2022-12-06T10:09:01.483Z,11.37
2022-12-06T10:11:47.271Z,11.72
2022-12-06T10:14:27.939Z,10.70
2022-12-06T10:17:09.472Z,10.46
2022-12-06T10:19:56.113Z,10.66
2022-12-06T10:22:32.533Z,12.13
2022-12-06T10:25:00.000Z,14.30
2022-12-06T10:27:32.071Z,16.96
2022-12-06T10:30:25.760Z,18.15
2022-12-06T10:32:54.446Z,18.79
2022-12-06T10:35:33.620Z,19.06
2022-12-06T10:38:19.559Z,17.58
2022-12-06T10:40:56.093Z,18.12
2022-12-06T10:43:24.312Z,18.13
2022-12-06T10:46:16.963Z,18.01
2022-12-06T10:48:48.854Z,19.41
2022-12-06T10:51:18.896Z,18.86
2022-12-06T10:53:47.867Z,20.00
2022-12-06T10:56:19.205Z,20.68
2022-12-06T10:59:00.947Z,19.54
2022-12-06T11:01:29.221Z,18.67
2022-12-06T11:03:59.842Z,18.61
2022-12-06T11:06:39.185Z,17.72
2022-12-06T11:09:25.352Z,17.92
2022-12-06T11:11:52.583Z,16.93
2022-12-06T11:14:35.218Z,14.86
2022-12-06T11:17:04.627Z,14.41
2022-12-06T11:19:39.156Z,14.36
2022-12-06T11:22:15.298Z,14.36
2022-12-06T11:24:47.840Z,14.05
2022-12-06T11:27:22.764Z,13.50
2022-12-06T11:29:50.324Z,12.51
2022-12-06T11:32:17.596Z,12.94
2022-12-06T11:34:49.988Z,11.91
2022-12-06T11:37:18.757Z,12.03
2022-12-06T11:39:46.045Z,12.23
2022-12-06T11:42:13.819Z,11.60
2022-12-06T11:44:44.963Z,11.87
2022-12-06T11:47:17.713Z,11.60
2022-12-06T11:49:45.434Z,12.21
2022-12-06T11:52:13.714Z,11.55
2022-12-06T11:54:44.624Z,11.48
2022-12-06T11:57:22.252Z,11.04
2022-12-06T12:00:08.809Z,11.47
2022-12-06T12:02:39.533Z,11.45
2022-12-06T12:05:11.456Z,11.32
2022-12-06T12:07:39.154Z,10.93
2022-12-06T12:10:27.382Z,11.47
2022-12-06T12:13:13.798Z,11.36
2022-12-06T12:15:48.224Z,11.33
2022-12-06T12:18:22.922Z,10.80
2022-12-06T12:20:50.498Z,11.81
2022-12-06T12:23:26.015Z,11.32
2022-12-06T12:26:01.416Z,11.54
2022-12-06T12:28:29.982Z,10.53
2022-12-06T12:30:58.599Z,11.31
2022-12-06T12:33:26.767Z,11.14
2022-12-06T12:35:55.618Z,11.31
2022-12-06T12:38:29.250Z,11.33
2022-12-06T12:40:56.651Z,11.72
2022-12-06T12:43:33.471Z,11.02
2022-12-06T12:46:06.741Z,11.51
2022-12-06T12:48:34.492Z,11.66
2022-12-06T12:51:03.217Z,11.25
2022-12-06T12:53:30.579Z,10.40
2022-12-06T12:56:16.923Z,10.79
2022-12-06T12:58:44.902Z,11.33
2022-12-06T13:01:32.726Z,11.45
2022-12-06T13:04:18.684Z,11.45
2022-12-06T13:06:48.603Z,12.40
2022-12-06T13:09:19.884Z,12.21
2022-12-06T13:11:48.610Z,12.28
2022-12-06T13:14:18.210Z,11.66
2022-12-06T13:16:45.447Z,11.88
2022-12-06T13:19:14.542Z,11.83
2022-12-06T13:21:45.451Z,11.81
2022-12-06T13:24:12.961Z,11.79
2022-12-06T13:26:42.577Z,12.32
2022-12-06T13:29:22.238Z,12.12
2022-12-06T13:31:50.427Z,11.29
2022-12-06T13:34:23.751Z,12.19
2022-12-06T13:36:52.329Z,11.85
2022-12-06T13:39:31.713Z,11.41
2022-12-06T13:42:18.208Z,11.03
2022-12-06T13:44:48.450Z,11.83
2022-12-06T13:47:28.071Z,11.80
2022-12-06T13:49:56.998Z,11.46
2022-12-06T13:52:43.053Z,11.42
2022-12-06T13:55:39.901Z,10.94
2022-12-06T13:58:07.360Z,11.64
2022-12-06T14:00:40.626Z,12.45
2022-12-06T14:03:14.183Z,12.08
2022-12-06T14:06:01.073Z,11.95
2022-12-06T14:08:31.773Z,11.19
2022-12-06T14:11:15.115Z,11.51
2022-12-06T14:13:43.589Z,11.41
2022-12-06T14:16:14.020Z,11.62
2022-12-06T14:18:41.655Z,11.23
2022-12-06T14:21:19.722Z,11.81
2022-12-06T14:23:48.162Z,12.53
2022-12-06T14:26:20.308Z,12.12
2022-12-06T14:28:47.785Z,12.52
2022-12-06T14:31:35.260Z,12.58
2022-12-06T14:34:02.943Z,12.77
2022-12-06T14:36:34.498Z,12.88
2022-12-06T14:39:03.068Z,12.56
2022-12-06T14:42:04.029Z,12.43
2022-12-06T14:44:31.951Z,12.45
2022-12-06T14:46:59.519Z,12.54
2022-12-06T14:49:46.348Z,12.26
2022-12-06T14:52:21.529Z,12.55
2022-12-06T14:54:49.901Z,12.55
2022-12-06T14:57:30.508Z,12.27
2022-12-06T15:00:26.546Z,12.31
2022-12-06T15:03:04.583Z,12.59
2022-12-06T15:05:32.992Z,12.35
2022-12-06T15:08:17.474Z,12.38
2022-12-06T15:10:55.198Z,12.14
2022-12-06T15:13:23.131Z,12.04
2022-12-06T15:16:19.799Z,11.62
2022-12-06T15:18:57.389Z,11.71
2022-12-06T15:21:24.631Z,11.71
2022-12-06T15:23:52.742Z,11.65
2022-12-06T15:26:23.351Z,11.53
2022-12-06T15:28:50.998Z,11.29
2022-12-06T15:31:27.015Z,10.81
2022-12-06T15:33:54.774Z,10.99
2022-12-06T15:36:23.400Z,10.78
2022-12-06T15:38:50.595Z,10.87
2022-12-06T15:41:17.804Z,10.72
2022-12-06T15:43:45.532Z,10.68
2022-12-06T15:46:16.602Z,10.83
2022-12-06T15:48:43.773Z,10.63
2022-12-06T15:51:20.350Z,10.78
2022-12-06T15:53:48.439Z,10.80
2022-12-06T15:56:19.965Z,10.87
2022-12-06T15:58:47.477Z,10.78
2022-12-06T16:01:19.383Z,11.03
2022-12-06T16:03:47.543Z,10.87
2022-12-06T16:06:15.534Z,10.81
2022-12-06T16:08:43.076Z,10.58
2022-12-06T16:11:12.457Z,9.97
2022-12-06T16:13:40.163Z,10.30
2022-12-06T16:16:07.703Z,10.45
2022-12-06T16:18:35.217Z,10.28
2022-12-06T16:21:02.737Z,9.44
2022-12-06T16:24:12.681Z,9.71
2022-12-06T16:26:37.531Z,9.48
2022-12-06T16:29:05.775Z,10.18
2022-12-06T16:31:36.513Z,10.14
2022-12-06T16:34:06.383Z,10.15
2022-12-06T16:36:34.066Z,10.19
2022-12-06T16:39:04.824Z,10.02
2022-12-06T16:41:32.863Z,10.09
2022-12-06T16:44:00.268Z,9.99
2022-12-06T16:46:28.751Z,10.47
2022-12-06T16:49:10.491Z,10.71
2022-12-06T16:51:45.076Z,10.67
2022-12-06T16:54:12.553Z,10.54
2022-12-06T16:56:41.773Z,10.75
2022-12-06T16:59:13.710Z,10.36
2022-12-06T17:01:59.532Z,10.27
2022-12-06T20:21:35.735Z,9.31
2022-12-06T20:24:03.513Z,9.66
2022-12-06T20:26:31.507Z,9.41
2022-12-06T20:28:58.947Z,9.31
2022-12-06T20:31:28.342Z,9.26
2022-12-06T20:33:56.187Z,9.52
2022-12-06T20:36:23.451Z,9.63
2022-12-06T20:38:54.437Z,9.65
2022-12-06T20:41:22.772Z,9.59
2022-12-06T20:43:51.168Z,9.48
2022-12-06T20:46:19.903Z,9.04
2022-12-06T20:48:47.260Z,9.02
2022-12-06T20:51:15.703Z,8.90
2022-12-06T20:53:43.518Z,9.08
2022-12-06T20:56:11.566Z,9.23
2022-12-06T20:58:39.153Z,9.21
2022-12-06T21:01:06.794Z,9.23
2022-12-06T21:03:34.128Z,9.29
2022-12-06T21:06:02.000Z,9.34
2022-12-06T21:08:29.686Z,9.35
2022-12-06T21:11:21.740Z,9.32
2022-12-06T21:13:44.837Z,9.26
2022-12-06T21:16:16.489Z,9.32
2022-12-06T21:18:44.110Z,9.29
2022-12-06T21:21:11.734Z,9.26
2022-12-06T21:23:40.594Z,9.13
2022-12-06T21:26:07.849Z,9.00
2022-12-06T21:28:35.321Z,9.07
2022-12-06T21:31:02.531Z,9.14
2022-12-06T21:33:29.738Z,9.12
2022-12-06T21:36:01.287Z,9.17
2022-12-06T21:38:29.846Z,9.17
2022-12-06T21:41:01.520Z,9.15
2022-12-06T21:43:28.919Z,9.16
2022-12-06T21:45:56.403Z,9.19
2022-12-06T21:48:23.569Z,9.05
2022-12-06T21:50:50.675Z,9.16
2022-12-06T21:53:18.078Z,8.99
2022-12-06T21:55:45.253Z,8.82
2022-12-06T21:58:12.410Z,8.80
2022-12-06T22:00:39.868Z,8.77
2022-12-06T22:03:07.485Z,8.58
2022-12-06T22:05:38.690Z,8.57
2022-12-06T22:08:05.964Z,8.28
2022-12-06T22:10:33.693Z,8.38
2022-12-06T22:13:00.862Z,8.23
2022-12-06T22:15:27.999Z,8.42
2022-12-06T22:17:55.411Z,8.21
2022-12-06T22:20:22.549Z,8.27
2022-12-06T22:22:49.712Z,8.48
2022-12-06T22:25:19.546Z,8.37
2022-12-06T22:27:47.020Z,8.45
2022-12-06T22:30:14.271Z,8.37
2022-12-06T22:32:41.778Z,8.56
2022-12-06T22:35:08.981Z,8.37
2022-12-06T22:37:36.173Z,8.17
2022-12-06T22:40:03.945Z,8.17
2022-12-06T22:42:31.820Z,8.44
2022-12-06T22:44:59.017Z,8.31
2022-12-06T22:47:26.494Z,8.17
2022-12-06T22:49:53.710Z,8.04
2022-12-06T22:52:20.853Z,8.27
2022-12-06T22:54:48.291Z,8.17
2022-12-06T22:57:15.453Z,8.13
2022-12-06T22:59:42.640Z,8.00
2022-12-06T23:02:10.108Z,7.99
2022-12-06T23:04:37.350Z,8.12
2022-12-06T23:07:04.531Z,8.17
2022-12-06T23:09:31.993Z,8.07
2022-12-06T23:11:59.162Z,8.11
2022-12-06T23:14:26.315Z,8.04
2022-12-06T23:16:53.845Z,7.96
2022-12-06T23:19:21.102Z,8.31
2022-12-06T23:21:48.417Z,8.34
2022-12-06T23:24:16.374Z,8.44
2022-12-06T23:26:45.263Z,8.50
2022-12-06T23:29:13.130Z,8.44
2022-12-06T23:31:41.626Z,8.40
2022-12-06T23:34:22.535Z,8.56
2022-12-06T23:36:50.040Z,8.46
2022-12-06T23:39:17.283Z,8.51
2022-12-06T23:41:44.605Z,8.61
2022-12-06T23:44:12.947Z,8.65
2022-12-06T23:46:40.377Z,8.65
2022-12-06T23:49:08.234Z,8.74
2022-12-06T23:51:37.012Z,8.44
2022-12-06T23:54:05.220Z,8.24
2022-12-06T23:56:36.137Z,8.53
2022-12-06T23:59:04.238Z,8.62
